sensor_id;sensor_type;location;lat;lon;timestamp;temperature;humidity
6662;DHT22;3367;48.714;8.994;2022-08-02T00:02:10;18.40;1.00
6662;DHT22;3367;48.714;8.994;2022-08-02T00:04:48;18.30;1.00
6662;DHT22;3367;48.714;8.994;2022-08-02T00:07:16;18.30;1.00
6662;DHT22;3367;48.714;8.994;2022-08-02T00:09:43;18.30;1.00
6662;DHT22;3367;48.714;8.994;2022-08-02T00:12:10;18.30;1.00
6662;DHT22;3367;48.714;8.994;2022-08-02T00:14:37;18.30;37.60
6662;DHT22;3367;48.714;8.994;2022-08-02T00:17:05;18.30;99.90
6662;DHT22;3367;48.714;8.994;2022-08-02T00:19:33;18.30;1.00
6662;DHT22;3367;48.714;8.994;2022-08-02T00:22:00;18.20;1.00
6662;DHT22;3367;48.714;8.994;2022-08-02T00:24:27;18.20;1.00
6662;DHT22;3367;48.714;8.994;2022-08-02T00:26:54;18.20;1.00
6662;DHT22;3367;48.714;8.994;2022-08-02T00:29:21;18.10;1.00
6662;DHT22;3367;48.714;8.994;2022-08-02T00:31:47;18.10;1.00
6662;DHT22;3367;48.714;8.994;2022-08-02T00:34:14;18.10;1.00
6662;DHT22;3367;48.714;8.994;2022-08-02T00:36:42;18.10;4.80
6662;DHT22;3367;48.714;8.994;2022-08-02T00:39:09;18.00;1.00
6662;DHT22;3367;48.714;8.994;2022-08-02T00:41:44;18.00;1.00
6662;DHT22;3367;48.714;8.994;2022-08-02T00:44:11;18.00;1.00
6662;DHT22;3367;48.714;8.994;2022-08-02T00:46:38;18.00;1.00
6662;DHT22;3367;48.714;8.994;2022-08-02T00:49:04;18.00;1.00
6662;DHT22;3367;48.714;8.994;2022-08-02T00:51:31;18.00;1.00
6662;DHT22;3367;48.714;8.994;2022-08-02T00:53:59;17.90;1.00
6662;DHT22;3367;48.714;8.994;2022-08-02T00:56:26;17.90;1.00
6662;DHT22;3367;48.714;8.994;2022-08-02T00:58:53;17.80;1.00
6662;DHT22;3367;48.714;8.994;2022-08-02T01:01:20;17.80;1.00
6662;DHT22;3367;48.714;8.994;2022-08-02T01:04:03;17.80;1.00
6662;DHT22;3367;48.714;8.994;2022-08-02T01:06:30;17.80;1.00
6662;DHT22;3367;48.714;8.994;2022-08-02T01:08:59;17.70;1.00
6662;DHT22;3367;48.714;8.994;2022-08-02T01:11:26;17.70;1.00
6662;DHT22;3367;48.714;8.994;2022-08-02T01:13:55;17.70;1.00
6662;DHT22;3367;48.714;8.994;2022-08-02T01:16:26;17.70;1.00
6662;DHT22;3367;48.714;8.994;2022-08-02T01:19:00;17.60;1.00
6662;DHT22;3367;48.714;8.994;2022-08-02T01:21:46;17.60;1.00
6662;DHT22;3367;48.714;8.994;2022-08-02T01:24:39;17.60;1.00
6662;DHT22;3367;48.714;8.994;2022-08-02T01:27:21;17.50;1.00
6662;DHT22;3367;48.714;8.994;2022-08-02T01:29:55;17.40;1.00
6662;DHT22;3367;48.714;8.994;2022-08-02T01:32:28;17.50;1.00
6662;DHT22;3367;48.714;8.994;2022-08-02T01:34:59;17.50;1.00
6662;DHT22;3367;48.714;8.994;2022-08-02T01:37:31;17.40;1.00
6662;DHT22;3367;48.714;8.994;2022-08-02T01:40:02;17.40;1.00
6662;DHT22;3367;48.714;8.994;2022-08-02T01:42:30;17.40;1.00
6662;DHT22;3367;48.714;8.994;2022-08-02T01:45:00;17.40;1.00
6662;DHT22;3367;48.714;8.994;2022-08-02T01:47:30;17.40;1.00
6662;DHT22;3367;48.714;8.994;2022-08-02T01:50:00;17.30;1.00
6662;DHT22;3367;48.714;8.994;2022-08-02T01:52:31;17.20;1.00
6662;DHT22;3367;48.714;8.994;2022-08-02T01:55:02;17.30;1.00
6662;DHT22;3367;48.714;8.994;2022-08-02T01:57:32;17.20;1.00
6662;DHT22;3367;48.714;8.994;2022-08-02T02:00:04;17.20;1.00
6662;DHT22;3367;48.714;8.994;2022-08-02T02:02:32;17.20;1.00
6662;DHT22;3367;48.714;8.994;2022-08-02T02:05:01;17.20;1.00
6662;DHT22;3367;48.714;8.994;2022-08-02T02:07:29;17.20;1.00
6662;DHT22;3367;48.714;8.994;2022-08-02T02:09:58;17.10;1.00
6662;DHT22;3367;48.714;8.994;2022-08-02T02:12:26;17.10;1.00
6662;DHT22;3367;48.714;8.994;2022-08-02T02:14:54;17.00;19.20
6662;DHT22;3367;48.714;8.994;2022-08-02T02:17:25;17.00;1.00
6662;DHT22;3367;48.714;8.994;2022-08-02T02:19:54;17.00;1.00
6662;DHT22;3367;48.714;8.994;2022-08-02T02:22:21;17.00;1.00
6662;DHT22;3367;48.714;8.994;2022-08-02T02:24:47;16.90;1.00
6662;DHT22;3367;48.714;8.994;2022-08-02T02:27:16;16.90;1.00
6662;DHT22;3367;48.714;8.994;2022-08-02T02:29:44;16.80;1.00
6662;DHT22;3367;48.714;8.994;2022-08-02T02:32:14;16.80;1.00
6662;DHT22;3367;48.714;8.994;2022-08-02T02:34:45;16.80;99.90
6662;DHT22;3367;48.714;8.994;2022-08-02T02:37:18;16.70;99.90
6662;DHT22;3367;48.714;8.994;2022-08-02T02:39:47;16.70;99.90
6662;DHT22;3367;48.714;8.994;2022-08-02T02:42:17;16.80;99.90
6662;DHT22;3367;48.714;8.994;2022-08-02T02:44:45;16.70;99.90
6662;DHT22;3367;48.714;8.994;2022-08-02T02:47:14;16.70;7.50
6662;DHT22;3367;48.714;8.994;2022-08-02T02:49:44;16.60;71.70
6662;DHT22;3367;48.714;8.994;2022-08-02T02:52:14;16.60;99.90
6662;DHT22;3367;48.714;8.994;2022-08-02T02:54:41;16.60;82.10
6662;DHT22;3367;48.714;8.994;2022-08-02T02:57:09;16.60;99.90
6662;DHT22;3367;48.714;8.994;2022-08-02T02:59:38;16.60;99.90
6662;DHT22;3367;48.714;8.994;2022-08-02T03:02:05;16.60;99.90
6662;DHT22;3367;48.714;8.994;2022-08-02T03:04:33;16.60;99.90
6662;DHT22;3367;48.714;8.994;2022-08-02T03:07:01;16.60;99.90
6662;DHT22;3367;48.714;8.994;2022-08-02T03:09:28;16.70;99.90
6662;DHT22;3367;48.714;8.994;2022-08-02T03:11:55;16.70;99.90
6662;DHT22;3367;48.714;8.994;2022-08-02T03:14:22;16.80;98.80
6662;DHT22;3367;48.714;8.994;2022-08-02T03:16:51;16.70;77.20
6662;DHT22;3367;48.714;8.994;2022-08-02T03:19:19;16.60;12.70
6662;DHT22;3367;48.714;8.994;2022-08-02T03:21:47;16.60;21.70
6662;DHT22;3367;48.714;8.994;2022-08-02T03:24:16;16.50;46.90
6662;DHT22;3367;48.714;8.994;2022-08-02T03:26:42;16.50;99.90
6662;DHT22;3367;48.714;8.994;2022-08-02T03:29:09;16.40;65.70
6662;DHT22;3367;48.714;8.994;2022-08-02T03:31:39;16.40;86.80
6662;DHT22;3367;48.714;8.994;2022-08-02T03:34:06;16.40;94.30
6662;DHT22;3367;48.714;8.994;2022-08-02T03:36:34;16.40;60.50
6662;DHT22;3367;48.714;8.994;2022-08-02T03:39:02;16.40;99.90
6662;DHT22;3367;48.714;8.994;2022-08-02T03:41:31;16.40;99.90
6662;DHT22;3367;48.714;8.994;2022-08-02T03:43:58;16.40;99.90
6662;DHT22;3367;48.714;8.994;2022-08-02T03:46:25;16.40;72.40
6662;DHT22;3367;48.714;8.994;2022-08-02T03:48:53;16.40;85.00
6662;DHT22;3367;48.714;8.994;2022-08-02T03:51:21;16.40;31.30
6662;DHT22;3367;48.714;8.994;2022-08-02T03:53:48;16.30;1.00
6662;DHT22;3367;48.714;8.994;2022-08-02T03:56:16;16.30;1.00
6662;DHT22;3367;48.714;8.994;2022-08-02T03:58:44;16.30;1.00
6662;DHT22;3367;48.714;8.994;2022-08-02T04:01:11;16.30;1.00
6662;DHT22;3367;48.714;8.994;2022-08-02T04:03:37;16.30;1.00
6662;DHT22;3367;48.714;8.994;2022-08-02T04:06:05;16.30;1.00
6662;DHT22;3367;48.714;8.994;2022-08-02T04:08:32;16.20;1.00
6662;DHT22;3367;48.714;8.994;2022-08-02T04:10:59;16.30;1.00
6662;DHT22;3367;48.714;8.994;2022-08-02T04:13:44;16.30;1.00
6662;DHT22;3367;48.714;8.994;2022-08-02T04:16:14;16.30;1.00
6662;DHT22;3367;48.714;8.994;2022-08-02T04:18:47;16.30;1.00
6662;DHT22;3367;48.714;8.994;2022-08-02T04:21:17;16.30;1.00
6662;DHT22;3367;48.714;8.994;2022-08-02T04:23:45;16.30;13.50
6662;DHT22;3367;48.714;8.994;2022-08-02T04:26:13;16.30;1.00
6662;DHT22;3367;48.714;8.994;2022-08-02T04:28:42;16.40;1.00
6662;DHT22;3367;48.714;8.994;2022-08-02T04:31:10;16.40;1.00
6662;DHT22;3367;48.714;8.994;2022-08-02T04:33:37;16.40;47.10
6662;DHT22;3367;48.714;8.994;2022-08-02T04:36:05;16.40;1.00
6662;DHT22;3367;48.714;8.994;2022-08-02T04:38:32;16.40;1.00
6662;DHT22;3367;48.714;8.994;2022-08-02T04:40:59;16.50;1.00
6662;DHT22;3367;48.714;8.994;2022-08-02T04:43:26;16.50;99.90
6662;DHT22;3367;48.714;8.994;2022-08-02T04:45:53;16.50;99.90
6662;DHT22;3367;48.714;8.994;2022-08-02T04:48:22;16.40;54.30
6662;DHT22;3367;48.714;8.994;2022-08-02T04:50:49;16.50;99.90
6662;DHT22;3367;48.714;8.994;2022-08-02T04:53:16;16.50;99.90
6662;DHT22;3367;48.714;8.994;2022-08-02T04:55:43;16.60;1.00
6662;DHT22;3367;48.714;8.994;2022-08-02T04:58:10;16.70;1.00
6662;DHT22;3367;48.714;8.994;2022-08-02T05:00:36;16.80;1.00
6662;DHT22;3367;48.714;8.994;2022-08-02T05:03:03;16.80;1.00
6662;DHT22;3367;48.714;8.994;2022-08-02T05:05:31;16.90;1.00
6662;DHT22;3367;48.714;8.994;2022-08-02T05:07:58;16.90;99.90
6662;DHT22;3367;48.714;8.994;2022-08-02T05:10:25;17.00;1.00
6662;DHT22;3367;48.714;8.994;2022-08-02T05:12:51;17.10;99.90
6662;DHT22;3367;48.714;8.994;2022-08-02T05:15:18;17.30;99.90
6662;DHT22;3367;48.714;8.994;2022-08-02T05:17:46;17.40;99.90
6662;DHT22;3367;48.714;8.994;2022-08-02T05:20:14;17.50;1.00
6662;DHT22;3367;48.714;8.994;2022-08-02T05:22:42;17.70;1.00
6662;DHT22;3367;48.714;8.994;2022-08-02T05:25:09;17.80;1.00
6662;DHT22;3367;48.714;8.994;2022-08-02T05:27:36;17.90;1.00
6662;DHT22;3367;48.714;8.994;2022-08-02T05:30:04;17.90;99.90
6662;DHT22;3367;48.714;8.994;2022-08-02T05:32:31;18.00;70.20
6662;DHT22;3367;48.714;8.994;2022-08-02T05:34:59;18.10;1.00
6662;DHT22;3367;48.714;8.994;2022-08-02T05:37:29;18.20;1.00
6662;DHT22;3367;48.714;8.994;2022-08-02T05:39:57;18.40;1.00
6662;DHT22;3367;48.714;8.994;2022-08-02T05:42:24;18.60;1.00
6662;DHT22;3367;48.714;8.994;2022-08-02T05:44:50;18.60;99.90
6662;DHT22;3367;48.714;8.994;2022-08-02T05:47:17;18.60;71.20
6662;DHT22;3367;48.714;8.994;2022-08-02T05:49:44;18.60;99.90
6662;DHT22;3367;48.714;8.994;2022-08-02T05:52:15;18.60;1.00
6662;DHT22;3367;48.714;8.994;2022-08-02T05:54:47;18.50;99.90
6662;DHT22;3367;48.714;8.994;2022-08-02T05:57:25;18.50;99.90
6662;DHT22;3367;48.714;8.994;2022-08-02T06:00:03;18.50;1.00
6662;DHT22;3367;48.714;8.994;2022-08-02T06:02:41;18.60;99.90
6662;DHT22;3367;48.714;8.994;2022-08-02T06:05:10;18.90;99.90
6662;DHT22;3367;48.714;8.994;2022-08-02T06:07:40;19.30;1.00
6662;DHT22;3367;48.714;8.994;2022-08-02T06:10:08;19.70;1.00
6662;DHT22;3367;48.714;8.994;2022-08-02T06:12:41;20.10;99.90
6662;DHT22;3367;48.714;8.994;2022-08-02T06:15:13;20.70;99.90
6662;DHT22;3367;48.714;8.994;2022-08-02T06:17:40;21.30;1.00
6662;DHT22;3367;48.714;8.994;2022-08-02T06:20:10;21.90;1.00
6662;DHT22;3367;48.714;8.994;2022-08-02T06:22:40;22.10;1.00
6662;DHT22;3367;48.714;8.994;2022-08-02T06:25:09;22.20;1.00
6662;DHT22;3367;48.714;8.994;2022-08-02T06:27:37;22.30;1.00
6662;DHT22;3367;48.714;8.994;2022-08-02T06:30:06;22.20;99.90
6662;DHT22;3367;48.714;8.994;2022-08-02T06:32:33;22.40;1.00
6662;DHT22;3367;48.714;8.994;2022-08-02T06:35:00;22.40;99.90
6662;DHT22;3367;48.714;8.994;2022-08-02T06:37:34;22.40;99.90
6662;DHT22;3367;48.714;8.994;2022-08-02T06:40:07;22.30;99.90
6662;DHT22;3367;48.714;8.994;2022-08-02T06:42:48;22.50;99.90
6662;DHT22;3367;48.714;8.994;2022-08-02T06:45:15;22.60;99.90
6662;DHT22;3367;48.714;8.994;2022-08-02T06:47:43;22.70;99.90
6662;DHT22;3367;48.714;8.994;2022-08-02T06:50:10;23.10;1.00
6662;DHT22;3367;48.714;8.994;2022-08-02T06:52:37;23.40;1.00
6662;DHT22;3367;48.714;8.994;2022-08-02T06:55:05;23.50;1.00
6662;DHT22;3367;48.714;8.994;2022-08-02T06:57:32;23.60;1.00
6662;DHT22;3367;48.714;8.994;2022-08-02T07:00:01;23.60;1.00
6662;DHT22;3367;48.714;8.994;2022-08-02T07:02:31;23.90;1.00
6662;DHT22;3367;48.714;8.994;2022-08-02T07:04:58;24.00;1.00
6662;DHT22;3367;48.714;8.994;2022-08-02T07:07:25;24.20;1.00
6662;DHT22;3367;48.714;8.994;2022-08-02T07:09:52;24.30;1.00
6662;DHT22;3367;48.714;8.994;2022-08-02T07:12:19;24.10;1.00
6662;DHT22;3367;48.714;8.994;2022-08-02T07:14:46;24.10;1.00
6662;DHT22;3367;48.714;8.994;2022-08-02T07:17:14;23.90;1.00
6662;DHT22;3367;48.714;8.994;2022-08-02T07:19:40;23.90;1.00
6662;DHT22;3367;48.714;8.994;2022-08-02T07:22:07;23.80;1.00
6662;DHT22;3367;48.714;8.994;2022-08-02T07:24:34;24.10;1.00
6662;DHT22;3367;48.714;8.994;2022-08-02T07:27:01;24.60;1.00
6662;DHT22;3367;48.714;8.994;2022-08-02T07:29:27;24.60;1.00
6662;DHT22;3367;48.714;8.994;2022-08-02T07:31:54;25.10;1.00
6662;DHT22;3367;48.714;8.994;2022-08-02T07:34:22;25.40;1.00
6662;DHT22;3367;48.714;8.994;2022-08-02T07:36:49;24.80;1.00
6662;DHT22;3367;48.714;8.994;2022-08-02T07:39:15;24.70;1.00
6662;DHT22;3367;48.714;8.994;2022-08-02T07:41:42;24.50;1.00
6662;DHT22;3367;48.714;8.994;2022-08-02T07:44:10;24.20;1.00
6662;DHT22;3367;48.714;8.994;2022-08-02T07:46:37;24.20;1.00
6662;DHT22;3367;48.714;8.994;2022-08-02T07:49:04;24.70;1.00
6662;DHT22;3367;48.714;8.994;2022-08-02T07:51:32;24.80;1.00
6662;DHT22;3367;48.714;8.994;2022-08-02T07:54:00;24.90;1.00
6662;DHT22;3367;48.714;8.994;2022-08-02T07:56:26;25.00;1.00
6662;DHT22;3367;48.714;8.994;2022-08-02T07:58:53;24.90;1.00
6662;DHT22;3367;48.714;8.994;2022-08-02T08:01:20;24.50;1.00
6662;DHT22;3367;48.714;8.994;2022-08-02T08:03:46;24.40;1.00
6662;DHT22;3367;48.714;8.994;2022-08-02T08:06:13;24.50;1.00
6662;DHT22;3367;48.714;8.994;2022-08-02T08:08:41;24.90;1.00
6662;DHT22;3367;48.714;8.994;2022-08-02T08:11:08;25.10;1.00
6662;DHT22;3367;48.714;8.994;2022-08-02T08:13:35;25.00;1.00
6662;DHT22;3367;48.714;8.994;2022-08-02T08:16:01;25.00;1.00
6662;DHT22;3367;48.714;8.994;2022-08-02T08:18:28;25.30;1.00
6662;DHT22;3367;48.714;8.994;2022-08-02T08:20:55;25.50;1.00
6662;DHT22;3367;48.714;8.994;2022-08-02T08:23:22;25.30;1.00
6662;DHT22;3367;48.714;8.994;2022-08-02T08:25:50;25.40;1.00
6662;DHT22;3367;48.714;8.994;2022-08-02T08:28:17;25.40;1.00
6662;DHT22;3367;48.714;8.994;2022-08-02T08:30:44;25.10;1.00
6662;DHT22;3367;48.714;8.994;2022-08-02T08:33:11;25.10;1.00
6662;DHT22;3367;48.714;8.994;2022-08-02T08:35:38;25.20;1.00
6662;DHT22;3367;48.714;8.994;2022-08-02T08:38:05;25.10;1.00
6662;DHT22;3367;48.714;8.994;2022-08-02T08:40:33;25.20;1.00
6662;DHT22;3367;48.714;8.994;2022-08-02T08:43:01;25.40;1.00
6662;DHT22;3367;48.714;8.994;2022-08-02T08:45:28;25.60;1.00
6662;DHT22;3367;48.714;8.994;2022-08-02T08:48:00;25.80;1.00
6662;DHT22;3367;48.714;8.994;2022-08-02T08:50:29;25.90;1.00
6662;DHT22;3367;48.714;8.994;2022-08-02T08:53:02;25.70;1.00
6662;DHT22;3367;48.714;8.994;2022-08-02T08:55:30;25.80;1.00
6662;DHT22;3367;48.714;8.994;2022-08-02T08:57:58;25.30;1.00
6662;DHT22;3367;48.714;8.994;2022-08-02T09:00:26;25.00;1.00
6662;DHT22;3367;48.714;8.994;2022-08-02T09:02:55;25.10;1.00
6662;DHT22;3367;48.714;8.994;2022-08-02T09:05:22;25.30;1.00
6662;DHT22;3367;48.714;8.994;2022-08-02T09:07:50;25.50;1.00
6662;DHT22;3367;48.714;8.994;2022-08-02T09:10:38;25.50;1.00
6662;DHT22;3367;48.714;8.994;2022-08-02T09:13:07;25.40;1.00
6662;DHT22;3367;48.714;8.994;2022-08-02T09:15:35;25.20;1.00
6662;DHT22;3367;48.714;8.994;2022-08-02T09:18:03;25.20;1.00
6662;DHT22;3367;48.714;8.994;2022-08-02T09:20:31;25.20;1.00
6662;DHT22;3367;48.714;8.994;2022-08-02T09:23:05;25.30;1.00
6662;DHT22;3367;48.714;8.994;2022-08-02T09:25:32;25.40;1.00
6662;DHT22;3367;48.714;8.994;2022-08-02T09:27:59;25.50;1.00
6662;DHT22;3367;48.714;8.994;2022-08-02T09:30:25;25.50;1.00
6662;DHT22;3367;48.714;8.994;2022-08-02T09:32:53;25.60;1.00
6662;DHT22;3367;48.714;8.994;2022-08-02T09:35:34;25.70;1.00
6662;DHT22;3367;48.714;8.994;2022-08-02T09:38:08;25.80;1.00
6662;DHT22;3367;48.714;8.994;2022-08-02T09:40:36;25.50;1.00
6662;DHT22;3367;48.714;8.994;2022-08-02T09:43:03;25.40;1.00
6662;DHT22;3367;48.714;8.994;2022-08-02T09:45:31;25.50;1.00
6662;DHT22;3367;48.714;8.994;2022-08-02T09:48:00;25.60;1.00
6662;DHT22;3367;48.714;8.994;2022-08-02T09:50:27;25.50;1.00
6662;DHT22;3367;48.714;8.994;2022-08-02T09:52:54;25.30;1.00
6662;DHT22;3367;48.714;8.994;2022-08-02T09:55:22;25.30;1.00
6662;DHT22;3367;48.714;8.994;2022-08-02T09:57:49;25.20;1.00
6662;DHT22;3367;48.714;8.994;2022-08-02T10:00:16;25.30;1.00
6662;DHT22;3367;48.714;8.994;2022-08-02T10:03:09;25.30;1.00
6662;DHT22;3367;48.714;8.994;2022-08-02T10:05:47;25.20;1.00
6662;DHT22;3367;48.714;8.994;2022-08-02T10:08:15;25.30;1.00
6662;DHT22;3367;48.714;8.994;2022-08-02T10:10:42;25.20;1.00
6662;DHT22;3367;48.714;8.994;2022-08-02T10:13:10;25.00;1.00
6662;DHT22;3367;48.714;8.994;2022-08-02T10:15:37;24.90;1.00
6662;DHT22;3367;48.714;8.994;2022-08-02T10:18:04;24.80;1.00
6662;DHT22;3367;48.714;8.994;2022-08-02T10:20:39;24.80;1.00
6662;DHT22;3367;48.714;8.994;2022-08-02T10:23:08;24.80;1.00
6662;DHT22;3367;48.714;8.994;2022-08-02T10:25:36;25.00;1.00
6662;DHT22;3367;48.714;8.994;2022-08-02T10:28:05;25.20;1.00
6662;DHT22;3367;48.714;8.994;2022-08-02T10:30:33;25.10;1.00
6662;DHT22;3367;48.714;8.994;2022-08-02T10:33:02;25.10;1.00
6662;DHT22;3367;48.714;8.994;2022-08-02T10:35:34;25.10;1.00
6662;DHT22;3367;48.714;8.994;2022-08-02T10:38:05;25.10;1.00
6662;DHT22;3367;48.714;8.994;2022-08-02T10:40:43;25.10;1.00
6662;DHT22;3367;48.714;8.994;2022-08-02T10:43:10;25.10;1.00
6662;DHT22;3367;48.714;8.994;2022-08-02T10:45:37;25.40;1.00
6662;DHT22;3367;48.714;8.994;2022-08-02T10:48:07;25.50;1.00
6662;DHT22;3367;48.714;8.994;2022-08-02T10:50:54;25.30;1.00
6662;DHT22;3367;48.714;8.994;2022-08-02T10:53:26;25.50;1.00
6662;DHT22;3367;48.714;8.994;2022-08-02T10:55:54;25.70;1.00
6662;DHT22;3367;48.714;8.994;2022-08-02T10:58:22;25.60;1.00
6662;DHT22;3367;48.714;8.994;2022-08-02T11:00:49;25.70;1.00
6662;DHT22;3367;48.714;8.994;2022-08-02T11:03:39;26.00;1.00
6662;DHT22;3367;48.714;8.994;2022-08-02T11:06:09;26.00;1.00
6662;DHT22;3367;48.714;8.994;2022-08-02T11:08:37;26.20;1.00
6662;DHT22;3367;48.714;8.994;2022-08-02T11:11:16;26.10;1.00
6662;DHT22;3367;48.714;8.994;2022-08-02T11:13:59;26.10;1.00
6662;DHT22;3367;48.714;8.994;2022-08-02T11:19:28;26.20;1.00
6662;DHT22;3367;48.714;8.994;2022-08-02T11:22:01;26.20;1.00
6662;DHT22;3367;48.714;8.994;2022-08-02T11:24:29;26.10;1.00
6662;DHT22;3367;48.714;8.994;2022-08-02T11:26:57;26.20;1.00
6662;DHT22;3367;48.714;8.994;2022-08-02T11:29:35;26.30;1.00
6662;DHT22;3367;48.714;8.994;2022-08-02T11:32:03;26.00;1.00
6662;DHT22;3367;48.714;8.994;2022-08-02T11:34:30;26.30;1.00
6662;DHT22;3367;48.714;8.994;2022-08-02T11:36:58;26.20;1.00
6662;DHT22;3367;48.714;8.994;2022-08-02T11:39:26;26.30;1.00
6662;DHT22;3367;48.714;8.994;2022-08-02T11:41:54;26.40;1.00
6662;DHT22;3367;48.714;8.994;2022-08-02T11:44:21;26.20;1.00
6662;DHT22;3367;48.714;8.994;2022-08-02T11:46:55;26.10;1.00
6662;DHT22;3367;48.714;8.994;2022-08-02T11:49:23;26.20;1.00
6662;DHT22;3367;48.714;8.994;2022-08-02T11:51:51;26.10;1.00
6662;DHT22;3367;48.714;8.994;2022-08-02T11:54:22;26.10;1.00
6662;DHT22;3367;48.714;8.994;2022-08-02T11:56:50;26.00;1.00
6662;DHT22;3367;48.714;8.994;2022-08-02T11:59:17;26.10;1.00
6662;DHT22;3367;48.714;8.994;2022-08-02T12:01:44;26.00;1.00
6662;DHT22;3367;48.714;8.994;2022-08-02T12:04:13;26.00;1.00
6662;DHT22;3367;48.714;8.994;2022-08-02T12:06:41;25.80;1.00
6662;DHT22;3367;48.714;8.994;2022-08-02T12:09:10;25.70;1.00
6662;DHT22;3367;48.714;8.994;2022-08-02T12:11:37;25.80;1.00
6662;DHT22;3367;48.714;8.994;2022-08-02T12:14:05;25.90;1.00
6662;DHT22;3367;48.714;8.994;2022-08-02T12:16:33;26.00;1.00
6662;DHT22;3367;48.714;8.994;2022-08-02T12:19:18;26.10;1.00
6662;DHT22;3367;48.714;8.994;2022-08-02T12:21:48;26.10;1.00
6662;DHT22;3367;48.714;8.994;2022-08-02T12:24:26;26.00;1.00
6662;DHT22;3367;48.714;8.994;2022-08-02T12:26:53;26.20;1.00
6662;DHT22;3367;48.714;8.994;2022-08-02T12:29:30;26.20;1.00
6662;DHT22;3367;48.714;8.994;2022-08-02T12:31:56;26.20;1.00
6662;DHT22;3367;48.714;8.994;2022-08-02T12:34:24;26.30;1.00
6662;DHT22;3367;48.714;8.994;2022-08-02T12:36:59;26.40;1.00
6662;DHT22;3367;48.714;8.994;2022-08-02T12:39:34;26.40;1.00
6662;DHT22;3367;48.714;8.994;2022-08-02T12:42:01;26.40;1.00
6662;DHT22;3367;48.714;8.994;2022-08-02T12:44:30;26.60;1.00
6662;DHT22;3367;48.714;8.994;2022-08-02T12:47:01;26.50;1.00
6662;DHT22;3367;48.714;8.994;2022-08-02T12:49:28;26.60;1.00
6662;DHT22;3367;48.714;8.994;2022-08-02T12:51:55;26.80;1.00
6662;DHT22;3367;48.714;8.994;2022-08-02T12:54:24;26.70;1.00
6662;DHT22;3367;48.714;8.994;2022-08-02T12:56:51;26.70;1.00
6662;DHT22;3367;48.714;8.994;2022-08-02T12:59:34;26.80;1.00
6662;DHT22;3367;48.714;8.994;2022-08-02T13:02:02;26.80;1.00
6662;DHT22;3367;48.714;8.994;2022-08-02T13:04:29;26.80;1.00
6662;DHT22;3367;48.714;8.994;2022-08-02T13:06:57;27.10;1.00
6662;DHT22;3367;48.714;8.994;2022-08-02T13:09:24;27.30;1.00
6662;DHT22;3367;48.714;8.994;2022-08-02T13:11:50;27.40;1.00
6662;DHT22;3367;48.714;8.994;2022-08-02T13:14:17;27.50;1.00
6662;DHT22;3367;48.714;8.994;2022-08-02T13:16:45;27.60;1.00
6662;DHT22;3367;48.714;8.994;2022-08-02T13:19:12;27.70;1.00
6662;DHT22;3367;48.714;8.994;2022-08-02T13:21:40;27.70;1.00
6662;DHT22;3367;48.714;8.994;2022-08-02T13:24:07;27.70;1.00
6662;DHT22;3367;48.714;8.994;2022-08-02T13:26:35;27.30;1.00
6662;DHT22;3367;48.714;8.994;2022-08-02T13:29:02;27.20;1.00
6662;DHT22;3367;48.714;8.994;2022-08-02T13:31:29;27.20;1.00
6662;DHT22;3367;48.714;8.994;2022-08-02T13:33:59;27.00;1.00
6662;DHT22;3367;48.714;8.994;2022-08-02T13:36:26;26.80;1.00
6662;DHT22;3367;48.714;8.994;2022-08-02T13:38:52;26.80;1.00
6662;DHT22;3367;48.714;8.994;2022-08-02T13:41:19;26.80;1.00
6662;DHT22;3367;48.714;8.994;2022-08-02T13:43:46;26.90;1.00
6662;DHT22;3367;48.714;8.994;2022-08-02T13:46:13;26.80;1.00
6662;DHT22;3367;48.714;8.994;2022-08-02T13:48:39;26.90;1.00
6662;DHT22;3367;48.714;8.994;2022-08-02T13:51:08;27.10;1.00
6662;DHT22;3367;48.714;8.994;2022-08-02T13:53:36;27.10;1.00
6662;DHT22;3367;48.714;8.994;2022-08-02T13:56:03;27.20;1.00
6662;DHT22;3367;48.714;8.994;2022-08-02T13:58:30;27.40;1.00
6662;DHT22;3367;48.714;8.994;2022-08-02T14:00:57;27.40;1.00
6662;DHT22;3367;48.714;8.994;2022-08-02T14:03:23;27.50;1.00
6662;DHT22;3367;48.714;8.994;2022-08-02T14:05:50;27.70;1.00
6662;DHT22;3367;48.714;8.994;2022-08-02T14:08:20;27.90;1.00
6662;DHT22;3367;48.714;8.994;2022-08-02T14:10:49;27.90;1.00
6662;DHT22;3367;48.714;8.994;2022-08-02T14:13:16;27.90;1.00
6662;DHT22;3367;48.714;8.994;2022-08-02T14:15:44;27.80;1.00
6662;DHT22;3367;48.714;8.994;2022-08-02T14:18:11;27.80;1.00
6662;DHT22;3367;48.714;8.994;2022-08-02T14:20:39;27.90;1.00
6662;DHT22;3367;48.714;8.994;2022-08-02T14:23:05;27.90;1.00
6662;DHT22;3367;48.714;8.994;2022-08-02T14:25:34;27.70;1.00
6662;DHT22;3367;48.714;8.994;2022-08-02T14:28:00;27.60;1.00
6662;DHT22;3367;48.714;8.994;2022-08-02T14:30:27;27.50;1.00
6662;DHT22;3367;48.714;8.994;2022-08-02T14:32:54;27.50;1.00
6662;DHT22;3367;48.714;8.994;2022-08-02T14:35:21;27.60;1.00
6662;DHT22;3367;48.714;8.994;2022-08-02T14:37:47;27.50;1.00
6662;DHT22;3367;48.714;8.994;2022-08-02T14:40:14;27.40;1.00
6662;DHT22;3367;48.714;8.994;2022-08-02T14:42:42;27.40;1.00
6662;DHT22;3367;48.714;8.994;2022-08-02T14:45:09;27.40;1.00
6662;DHT22;3367;48.714;8.994;2022-08-02T14:47:35;27.60;1.00
6662;DHT22;3367;48.714;8.994;2022-08-02T14:50:02;27.60;1.00
6662;DHT22;3367;48.714;8.994;2022-08-02T14:52:29;27.60;1.00
6662;DHT22;3367;48.714;8.994;2022-08-02T14:54:56;27.60;1.00
6662;DHT22;3367;48.714;8.994;2022-08-02T14:57:23;27.70;1.00
6662;DHT22;3367;48.714;8.994;2022-08-02T14:59:51;27.70;1.00
6662;DHT22;3367;48.714;8.994;2022-08-02T15:02:17;27.70;1.00
6662;DHT22;3367;48.714;8.994;2022-08-02T15:04:44;27.70;1.00
6662;DHT22;3367;48.714;8.994;2022-08-02T15:07:12;27.80;1.00
6662;DHT22;3367;48.714;8.994;2022-08-02T15:09:39;27.80;1.00
6662;DHT22;3367;48.714;8.994;2022-08-02T15:12:07;27.80;1.00
6662;DHT22;3367;48.714;8.994;2022-08-02T15:14:34;27.90;1.00
6662;DHT22;3367;48.714;8.994;2022-08-02T15:17:03;28.00;1.00
6662;DHT22;3367;48.714;8.994;2022-08-02T15:19:30;27.90;1.00
6662;DHT22;3367;48.714;8.994;2022-08-02T15:21:57;27.90;1.00
6662;DHT22;3367;48.714;8.994;2022-08-02T15:24:24;27.90;1.00
6662;DHT22;3367;48.714;8.994;2022-08-02T15:26:51;27.80;1.00
6662;DHT22;3367;48.714;8.994;2022-08-02T15:29:19;27.70;1.00
6662;DHT22;3367;48.714;8.994;2022-08-02T15:31:46;27.70;1.00
6662;DHT22;3367;48.714;8.994;2022-08-02T15:34:14;27.80;1.00
6662;DHT22;3367;48.714;8.994;2022-08-02T15:36:41;27.70;1.00
6662;DHT22;3367;48.714;8.994;2022-08-02T15:39:08;27.70;1.00
6662;DHT22;3367;48.714;8.994;2022-08-02T15:41:35;27.70;1.00
6662;DHT22;3367;48.714;8.994;2022-08-02T15:44:02;27.70;1.00
6662;DHT22;3367;48.714;8.994;2022-08-02T15:46:35;27.80;1.00
6662;DHT22;3367;48.714;8.994;2022-08-02T15:49:01;27.80;1.00
6662;DHT22;3367;48.714;8.994;2022-08-02T15:51:30;27.90;1.00
6662;DHT22;3367;48.714;8.994;2022-08-02T15:53:56;27.70;1.00
6662;DHT22;3367;48.714;8.994;2022-08-02T15:56:23;27.80;1.00
6662;DHT22;3367;48.714;8.994;2022-08-02T15:58:50;27.70;1.00
6662;DHT22;3367;48.714;8.994;2022-08-02T16:01:17;27.70;1.00
6662;DHT22;3367;48.714;8.994;2022-08-02T16:03:44;27.70;1.00
6662;DHT22;3367;48.714;8.994;2022-08-02T16:06:10;27.80;1.00
6662;DHT22;3367;48.714;8.994;2022-08-02T16:08:38;27.80;1.00
6662;DHT22;3367;48.714;8.994;2022-08-02T16:11:05;27.80;1.00
6662;DHT22;3367;48.714;8.994;2022-08-02T16:13:32;27.70;1.00
6662;DHT22;3367;48.714;8.994;2022-08-02T16:16:19;27.70;1.00
6662;DHT22;3367;48.714;8.994;2022-08-02T16:18:46;27.60;1.00
6662;DHT22;3367;48.714;8.994;2022-08-02T16:21:13;27.50;1.00
6662;DHT22;3367;48.714;8.994;2022-08-02T16:23:41;27.40;1.00
6662;DHT22;3367;48.714;8.994;2022-08-02T16:26:07;27.40;1.00
6662;DHT22;3367;48.714;8.994;2022-08-02T16:28:34;27.40;1.00